Time;durP1;ratioP1;P1;durP2;ratioP2;P2;SDS_P1;SDS_P2;PMS_P1;PMS_P2;Temp;Humidity;BMP_temperature;BMP_pressure;BME280_temperature;BME280_humidity;BME280_pressure;Samples;Min_cycle;Max_cycle;Signal;HPM_P1;HPM_P2
2022/07/28 00:01:24;;;;;;;5.10;3.40;;;;;;;;;;5054496;28;20055;-75
2022/07/28 00:03:50;;;;;;;6.18;3.42;;;;;;;;;;5054311;28;20107;-75
2022/07/28 00:06:15;;;;;;;6.00;3.15;;;;;;;;;;5053428;28;20017;-75
2022/07/28 00:08:41;;;;;;;3.30;3.00;;;;;;;;;;5053929;28;20021;-75
2022/07/28 00:11:06;;;;;;;3.35;2.28;;;;;;;;;;5054552;28;20036;-74
2022/07/28 00:13:32;;;;;;;2.83;2.25;;;;;;;;;;5054123;28;20505;-74
2022/07/28 00:15:57;;;;;;;3.15;1.92;;;;;;;;;;5053718;28;20043;-74
2022/07/28 00:18:23;;;;;;;2.40;2.17;;;;;;;;;;5054077;28;20013;-74
2022/07/28 00:20:48;;;;;;;3.10;2.03;;;;;;;;;;5054290;28;20029;-74
2022/07/28 00:23:14;;;;;;;2.65;1.65;;;;;;;;;;5053956;28;20048;-74
2022/07/28 00:25:39;;;;;;;4.28;1.83;;;;;;;;;;5053696;28;20392;-74
2022/07/28 00:28:04;;;;;;;2.00;1.80;;;;;;;;;;5053753;28;20047;-74
2022/07/28 00:30:30;;;;;;;2.80;1.88;;;;;;;;;;5053942;28;20035;-76
2022/07/28 00:32:55;;;;;;;2.22;1.75;;;;;;;;;;5035799;28;20027;-75
2022/07/28 00:35:21;;;;;;;3.08;2.10;;;;;;;;;;5053551;28;20491;-75
2022/07/28 00:37:47;;;;;;;3.47;1.75;;;;;;;;;;5052343;28;20028;-75
2022/07/28 00:40:12;;;;;;;3.38;2.15;;;;;;;;;;5035712;28;20434;-75
2022/07/28 00:42:38;;;;;;;2.67;2.00;;;;;;;;;;5053417;28;20024;-75
2022/07/28 00:45:04;;;;;;;2.35;1.85;;;;;;;;;;5053500;28;20025;-76
2022/07/28 00:47:29;;;;;;;3.35;1.77;;;;;;;;;;5052148;28;20017;-75
2022/07/28 00:49:55;;;;;;;3.00;2.08;;;;;;;;;;5052553;28;20086;-76
2022/07/28 00:52:21;;;;;;;3.35;1.58;;;;;;;;;;5053306;28;20049;-76
2022/07/28 00:54:46;;;;;;;2.55;1.60;;;;;;;;;;5053677;28;20043;-75
2022/07/28 00:57:12;;;;;;;2.58;1.60;;;;;;;;;;5052225;28;20053;-74
2022/07/28 00:59:37;;;;;;;1.88;1.45;;;;;;;;;;5053328;28;20032;-74
2022/07/28 01:02:03;;;;;;;3.58;1.50;;;;;;;;;;5052001;28;20055;-76
2022/07/28 01:04:29;;;;;;;2.55;1.50;;;;;;;;;;5056911;28;20032;-76
2022/07/28 01:07:01;;;;;;;2.33;1.30;;;;;;;;;;5056060;28;20075;-76
2022/07/28 01:09:37;;;;;;;1.95;1.70;;;;;;;;;;5039432;28;20113;-76
2022/07/28 01:12:21;;;;;;;7.60;2.85;;;;;;;;;;5057279;28;20025;-76
2022/07/28 01:14:48;;;;;;;3.92;2.00;;;;;;;;;;5057486;28;20104;-76
2022/07/28 01:17:28;;;;;;;1.50;1.40;;;;;;;;;;5056088;28;20025;-76
2022/07/28 01:20:14;;;;;;;2.10;1.52;;;;;;;;;;5057389;28;20131;-76
2022/07/28 01:22:43;;;;;;;3.65;1.30;;;;;;;;;;5056056;28;20547;-75
2022/07/28 01:25:16;;;;;;;2.22;1.20;;;;;;;;;;5057436;28;20074;-74
2022/07/28 01:27:42;;;;;;;2.25;1.42;;;;;;;;;;5057500;28;20547;-74
2022/07/28 01:30:20;;;;;;;3.15;1.63;;;;;;;;;;5057207;28;20128;-73
2022/07/28 01:32:52;;;;;;;5.60;1.77;;;;;;;;;;5056833;28;20162;-74
2022/07/28 01:35:23;;;;;;;2.63;1.30;;;;;;;;;;5055931;28;20086;-74
2022/07/28 01:37:50;;;;;;;4.75;1.42;;;;;;;;;;5056737;28;20025;-74
2022/07/28 01:40:18;;;;;;;2.65;1.45;;;;;;;;;;5057253;28;20070;-74
2022/07/28 01:42:45;;;;;;;3.00;1.25;;;;;;;;;;5056580;28;20151;-74
2022/07/28 01:45:12;;;;;;;2.53;1.33;;;;;;;;;;5056860;28;20047;-74
2022/07/28 01:47:38;;;;;;;3.20;1.35;;;;;;;;;;5056556;28;20503;-74
2022/07/28 01:50:06;;;;;;;2.05;1.50;;;;;;;;;;5056504;28;20032;-74
2022/07/28 01:52:33;;;;;;;2.22;1.40;;;;;;;;;;5056407;28;20053;-74
2022/07/28 01:54:59;;;;;;;2.63;1.42;;;;;;;;;;5056697;28;20384;-74
2022/07/28 01:57:25;;;;;;;3.10;1.60;;;;;;;;;;5056406;28;20116;-74
2022/07/28 01:59:52;;;;;;;5.72;1.40;;;;;;;;;;5056337;28;20024;-75
2022/07/28 02:02:17;;;;;;;2.25;1.40;;;;;;;;;;5056296;28;20033;-75
2022/07/28 02:04:43;;;;;;;4.63;1.52;;;;;;;;;;5056301;28;20090;-75
2022/07/28 02:07:10;;;;;;;5.13;1.30;;;;;;;;;;5056273;28;20171;-75
2022/07/28 02:09:35;;;;;;;2.20;1.40;;;;;;;;;;5056175;28;20024;-75
2022/07/28 02:12:01;;;;;;;3.28;1.90;;;;;;;;;;5056374;28;20033;-75
2022/07/28 02:14:28;;;;;;;4.20;1.90;;;;;;;;;;5054375;28;20029;-75
2022/07/28 02:16:57;;;;;;;1.90;1.60;;;;;;;;;;5054783;28;20036;-75
2022/07/28 02:19:23;;;;;;;5.20;1.65;;;;;;;;;;5056292;28;20086;-75
2022/07/28 02:21:49;;;;;;;3.92;2.22;;;;;;;;;;5055949;28;20476;-74
2022/07/28 02:24:17;;;;;;;5.53;2.78;;;;;;;;;;5056189;28;20461;-74
2022/07/28 02:26:54;;;;;;;4.32;2.33;;;;;;;;;;5055859;28;20060;-75
2022/07/28 02:29:22;;;;;;;2.55;1.58;;;;;;;;;;5055929;28;20442;-76
2022/07/28 02:32:03;;;;;;;3.80;1.40;;;;;;;;;;5054532;28;20437;-75
2022/07/28 02:34:29;;;;;;;3.67;1.30;;;;;;;;;;5055944;28;20100;-75
2022/07/28 02:37:01;;;;;;;2.65;1.38;;;;;;;;;;5054421;28;20021;-75
2022/07/28 02:39:40;;;;;;;2.40;1.23;;;;;;;;;;5056174;28;20033;-74
2022/07/28 02:42:08;;;;;;;1.40;1.27;;;;;;;;;;5055047;28;20029;-75
2022/07/28 02:44:35;;;;;;;1.58;1.17;;;;;;;;;;5055539;28;20013;-75
2022/07/28 02:47:02;;;;;;;1.30;1.20;;;;;;;;;;5055435;28;20063;-74
2022/07/28 02:49:29;;;;;;;1.98;1.52;;;;;;;;;;5055687;28;20021;-74
2022/07/28 02:51:56;;;;;;;2.75;1.50;;;;;;;;;;5054208;28;20049;-74
2022/07/28 02:54:22;;;;;;;2.25;1.20;;;;;;;;;;5056360;28;20040;-74
2022/07/28 02:56:49;;;;;;;2.90;1.15;;;;;;;;;;5055577;28;20044;-75
2022/07/28 02:59:15;;;;;;;1.27;1.17;;;;;;;;;;5054833;28;20468;-76
2022/07/28 03:01:42;;;;;;;2.92;1.58;;;;;;;;;;5055047;28;20495;-75
2022/07/28 03:04:08;;;;;;;2.10;1.40;;;;;;;;;;5055288;28;20025;-75
2022/07/28 03:06:34;;;;;;;2.72;1.23;;;;;;;;;;5053967;28;20036;-75
2022/07/28 03:08:59;;;;;;;2.28;1.30;;;;;;;;;;5055294;28;20550;-75
2022/07/28 03:11:26;;;;;;;2.58;1.38;;;;;;;;;;5055178;28;20035;-75
2022/07/28 03:13:51;;;;;;;3.20;1.20;;;;;;;;;;5054303;28;20040;-76
2022/07/28 03:16:17;;;;;;;1.90;1.08;;;;;;;;;;5054943;28;20476;-75
2022/07/28 03:18:42;;;;;;;1.40;1.08;;;;;;;;;;5053983;28;20508;-76
2022/07/28 03:21:09;;;;;;;1.88;1.35;;;;;;;;;;5053776;28;20037;-76
2022/07/28 03:23:42;;;;;;;1.70;1.23;;;;;;;;;;5055040;28;20070;-76
2022/07/28 03:26:24;;;;;;;1.52;1.08;;;;;;;;;;5054439;28;20036;-76
2022/07/28 03:28:51;;;;;;;1.48;1.27;;;;;;;;;;5054653;28;20036;-75
2022/07/28 03:31:17;;;;;;;2.92;1.40;;;;;;;;;;5054801;28;20013;-75
2022/07/28 03:33:42;;;;;;;1.67;1.20;;;;;;;;;;5054529;28;20127;-75
2022/07/28 03:36:10;;;;;;;1.85;1.20;;;;;;;;;;5054818;28;20045;-75
2022/07/28 03:38:50;;;;;;;2.03;1.27;;;;;;;;;;5054471;28;20100;-75
2022/07/28 03:41:17;;;;;;;1.30;1.20;;;;;;;;;;5053362;28;20028;-74
2022/07/28 03:43:43;;;;;;;4.78;1.35;;;;;;;;;;5053091;28;20017;-75
2022/07/28 03:46:09;;;;;;;2.75;1.52;;;;;;;;;;5053343;28;20543;-75
2022/07/28 03:48:34;;;;;;;2.10;1.23;;;;;;;;;;5054568;28;20064;-75
2022/07/28 03:50:59;;;;;;;2.67;1.30;;;;;;;;;;5054192;28;20025;-75
2022/07/28 03:53:26;;;;;;;1.67;1.35;;;;;;;;;;5054078;28;20395;-74
2022/07/28 03:55:52;;;;;;;2.45;1.40;;;;;;;;;;5054281;28;20033;-74
2022/07/28 03:58:21;;;;;;;2.28;1.25;;;;;;;;;;5054665;28;20525;-74
2022/07/28 04:00:48;;;;;;;2.80;1.30;;;;;;;;;;5055037;28;20468;-74
2022/07/28 04:03:13;;;;;;;2.70;1.30;;;;;;;;;;5054223;28;20071;-75
2022/07/28 04:05:38;;;;;;;1.40;1.08;;;;;;;;;;5052730;28;20025;-75
2022/07/28 04:08:04;;;;;;;1.17;1.08;;;;;;;;;;5054258;28;20021;-75
2022/07/28 04:10:30;;;;;;;2.83;1.15;;;;;;;;;;5053045;28;20025;-75
2022/07/28 04:12:56;;;;;;;2.70;1.20;;;;;;;;;;5052702;28;20032;-75
2022/07/28 04:15:22;;;;;;;1.52;1.23;;;;;;;;;;5054400;28;20520;-76
2022/07/28 04:17:48;;;;;;;2.05;1.30;;;;;;;;;;5053437;28;20029;-76
2022/07/28 04:20:15;;;;;;;2.53;1.17;;;;;;;;;;5054360;28;20082;-76
2022/07/28 04:22:43;;;;;;;3.15;1.60;;;;;;;;;;5053641;28;20021;-76
2022/07/28 04:25:08;;;;;;;3.00;1.40;;;;;;;;;;5053833;28;20037;-75
2022/07/28 04:27:35;;;;;;;2.55;1.33;;;;;;;;;;5052797;28;20025;-75
2022/07/28 04:30:02;;;;;;;3.35;1.50;;;;;;;;;;5052634;28;20021;-76
2022/07/28 04:32:28;;;;;;;2.70;1.38;;;;;;;;;;5053808;28;20036;-76
2022/07/28 04:34:53;;;;;;;2.25;1.25;;;;;;;;;;5053272;28;20033;-76
2022/07/28 04:37:18;;;;;;;3.75;1.60;;;;;;;;;;5052714;28;20025;-76
2022/07/28 04:39:44;;;;;;;3.08;1.63;;;;;;;;;;5053069;28;20078;-75
2022/07/28 04:42:10;;;;;;;2.72;1.58;;;;;;;;;;5052753;28;20017;-75
2022/07/28 04:44:41;;;;;;;1.60;1.50;;;;;;;;;;5052504;28;20372;-75
2022/07/28 04:47:07;;;;;;;3.15;1.50;;;;;;;;;;5053207;28;20021;-75
2022/07/28 04:49:32;;;;;;;1.88;1.50;;;;;;;;;;5053576;28;20013;-75
2022/07/28 04:51:57;;;;;;;2.08;1.50;;;;;;;;;;5053649;28;20131;-74
2022/07/28 04:54:23;;;;;;;2.80;1.30;;;;;;;;;;5053534;28;20036;-74
2022/07/28 04:56:48;;;;;;;1.20;1.10;;;;;;;;;;5053667;28;20029;-74
2022/07/28 04:59:14;;;;;;;1.77;1.23;;;;;;;;;;5053381;28;20365;-75
2022/07/28 05:01:41;;;;;;;1.48;1.25;;;;;;;;;;5053381;28;20166;-75
2022/07/28 05:04:06;;;;;;;2.97;1.50;;;;;;;;;;5052714;28;20045;-75
2022/07/28 05:06:33;;;;;;;1.80;1.38;;;;;;;;;;5052997;28;20079;-75
2022/07/28 05:08:59;;;;;;;4.97;1.40;;;;;;;;;;5053038;28;20009;-75
2022/07/28 05:11:24;;;;;;;2.75;1.50;;;;;;;;;;5053085;28;20396;-75
2022/07/28 05:13:49;;;;;;;2.85;1.58;;;;;;;;;;5052919;28;20021;-75
2022/07/28 05:16:15;;;;;;;2.50;1.95;;;;;;;;;;5052967;28;20044;-75
2022/07/28 05:18:40;;;;;;;4.22;1.73;;;;;;;;;;5035003;28;20516;-75
2022/07/28 05:21:06;;;;;;;2.95;1.90;;;;;;;;;;5052619;28;20025;-74
2022/07/28 05:23:31;;;;;;;2.00;1.85;;;;;;;;;;5052829;28;20016;-74
2022/07/28 05:25:57;;;;;;;2.55;1.92;;;;;;;;;;5052752;28;20029;-74
2022/07/28 05:28:22;;;;;;;5.40;2.15;;;;;;;;;;5052770;28;20487;-74
2022/07/28 05:30:47;;;;;;;3.85;2.00;;;;;;;;;;5052548;28;20025;-73
2022/07/28 05:33:16;;;;;;;4.10;2.03;;;;;;;;;;5052799;28;20456;-74
2022/07/28 05:35:43;;;;;;;2.72;1.70;;;;;;;;;;5052454;28;20147;-74
2022/07/28 05:38:09;;;;;;;2.40;1.67;;;;;;;;;;5052336;28;20029;-74
2022/07/28 05:40:34;;;;;;;3.35;1.42;;;;;;;;;;5052560;28;20029;-73
2022/07/28 05:43:00;;;;;;;1.80;1.70;;;;;;;;;;5050817;28;20028;-74
2022/07/28 05:45:25;;;;;;;4.60;1.45;;;;;;;;;;5052576;28;20053;-74
2022/07/28 05:47:51;;;;;;;2.17;1.23;;;;;;;;;;5052641;28;20099;-74
2022/07/28 05:50:17;;;;;;;5.10;1.98;;;;;;;;;;5055162;28;20529;-74
2022/07/28 05:52:43;;;;;;;2.10;1.95;;;;;;;;;;5055977;28;20044;-74
2022/07/28 05:55:09;;;;;;;3.88;2.72;;;;;;;;;;5056014;28;20163;-74
2022/07/28 05:57:35;;;;;;;4.45;3.10;;;;;;;;;;5038095;28;20032;-74
2022/07/28 06:00:03;;;;;;;2.42;1.83;;;;;;;;;;5055320;28;20090;-74
2022/07/28 06:02:37;;;;;;;2.50;1.65;;;;;;;;;;5054080;28;20411;-74
2022/07/28 06:05:02;;;;;;;2.85;1.98;;;;;;;;;;5055183;28;20035;-74
2022/07/28 06:07:28;;;;;;;3.10;1.48;;;;;;;;;;5055223;28;20060;-74
2022/07/28 06:09:53;;;;;;;3.75;2.03;;;;;;;;;;5037189;28;20035;-74
2022/07/28 06:12:19;;;;;;;3.35;1.95;;;;;;;;;;5055027;28;20020;-74
2022/07/28 06:14:44;;;;;;;2.53;1.63;;;;;;;;;;5053730;28;20383;-74
2022/07/28 06:17:09;;;;;;;1.58;1.48;;;;;;;;;;5055041;28;20028;-74
2022/07/28 06:19:35;;;;;;;2.40;1.67;;;;;;;;;;5055020;28;20460;-73
2022/07/28 06:22:02;;;;;;;1.98;1.30;;;;;;;;;;5054950;28;20082;-74
2022/07/28 06:24:28;;;;;;;1.48;1.23;;;;;;;;;;5055579;28;20168;-73
2022/07/28 06:26:54;;;;;;;1.60;1.45;;;;;;;;;;5055752;28;20016;-74
2022/07/28 06:29:21;;;;;;;1.20;0.85;;;;;;;;;;5055448;28;20487;-74
2022/07/28 06:31:46;;;;;;;2.72;1.63;;;;;;;;;;5055512;28;20445;-74
2022/07/28 06:34:12;;;;;;;3.20;1.60;;;;;;;;;;5054199;28;20029;-74
2022/07/28 06:36:37;;;;;;;4.82;1.48;;;;;;;;;;5055418;28;20527;-74
2022/07/28 06:39:03;;;;;;;1.52;1.40;;;;;;;;;;5055408;28;20372;-74
2022/07/28 06:41:28;;;;;;;3.38;1.42;;;;;;;;;;5055133;28;20072;-74
2022/07/28 06:43:54;;;;;;;2.55;1.13;;;;;;;;;;5054049;28;20029;-74
2022/07/28 06:46:20;;;;;;;3.50;1.67;;;;;;;;;;5053984;28;20618;-74
2022/07/28 06:48:46;;;;;;;1.48;1.10;;;;;;;;;;5053847;28;20029;-74
2022/07/28 06:51:17;;;;;;;2.50;1.05;;;;;;;;;;5053903;28;20017;-74
2022/07/28 06:53:43;;;;;;;5.47;2.20;;;;;;;;;;5053857;28;20029;-75
2022/07/28 06:56:08;;;;;;;2.33;1.23;;;;;;;;;;5053912;28;20027;-74
2022/07/28 06:58:34;;;;;;;2.38;1.10;;;;;;;;;;5054405;28;20078;-74
2022/07/28 07:01:01;;;;;;;1.80;1.00;;;;;;;;;;5054127;28;20020;-74
2022/07/28 07:03:26;;;;;;;2.13;1.05;;;;;;;;;;5052709;28;20399;-73
2022/07/28 07:05:52;;;;;;;1.00;0.95;;;;;;;;;;5052749;28;20115;-74
2022/07/28 07:08:19;;;;;;;1.70;0.98;;;;;;;;;;5054052;28;20052;-73
2022/07/28 07:10:44;;;;;;;1.38;1.10;;;;;;;;;;5054064;28;20452;-73
2022/07/28 07:13:10;;;;;;;5.05;1.38;;;;;;;;;;5053740;28;20029;-73
2022/07/28 07:15:35;;;;;;;2.50;1.17;;;;;;;;;;5052656;28;20027;-73
2022/07/28 07:18:01;;;;;;;1.20;1.10;;;;;;;;;;5053788;28;20087;-73
2022/07/28 07:20:27;;;;;;;2.33;1.13;;;;;;;;;;5052794;28;20091;-73
2022/07/28 07:22:52;;;;;;;3.00;1.20;;;;;;;;;;5053662;28;20400;-73
2022/07/28 07:25:18;;;;;;;3.30;1.40;;;;;;;;;;5052573;28;20033;-73
2022/07/28 07:27:43;;;;;;;2.03;0.95;;;;;;;;;;5053642;28;20492;-74
2022/07/28 07:30:09;;;;;;;1.15;1.02;;;;;;;;;;5053595;28;20017;-74
2022/07/28 07:32:35;;;;;;;2.22;1.30;;;;;;;;;;5052227;28;20028;-73
2022/07/28 07:35:00;;;;;;;1.98;1.00;;;;;;;;;;5052198;28;20127;-74
2022/07/28 07:37:26;;;;;;;2.28;1.20;;;;;;;;;;5053503;28;20028;-74
2022/07/28 07:39:51;;;;;;;1.65;0.90;;;;;;;;;;5053788;28;20400;-73
2022/07/28 07:42:17;;;;;;;2.58;1.13;;;;;;;;;;5053848;28;20039;-73
2022/07/28 07:44:42;;;;;;;1.30;1.10;;;;;;;;;;5053753;28;20104;-74
2022/07/28 07:47:08;;;;;;;1.15;1.05;;;;;;;;;;5054136;28;20396;-74
2022/07/28 07:49:34;;;;;;;2.25;1.23;;;;;;;;;;5054026;28;20143;-74
2022/07/28 07:51:59;;;;;;;2.13;1.27;;;;;;;;;;5053630;28;20502;-74
2022/07/28 07:54:25;;;;;;;1.83;1.17;;;;;;;;;;5053927;28;20031;-74
2022/07/28 07:56:50;;;;;;;3.22;1.20;;;;;;;;;;5053710;28;20039;-74
2022/07/28 07:59:15;;;;;;;3.25;1.10;;;;;;;;;;5052582;28;20025;-74
2022/07/28 08:01:41;;;;;;;1.80;1.20;;;;;;;;;;5053688;28;20457;-74
2022/07/28 08:04:06;;;;;;;1.85;1.30;;;;;;;;;;5053769;28;20016;-73
2022/07/28 08:06:32;;;;;;;2.33;1.30;;;;;;;;;;5053711;28;20040;-74
2022/07/28 08:08:57;;;;;;;1.38;1.30;;;;;;;;;;5052529;28;20532;-75
2022/07/28 08:11:23;;;;;;;1.95;1.30;;;;;;;;;;5035508;28;20041;-74
2022/07/28 08:13:48;;;;;;;2.42;1.27;;;;;;;;;;5052624;28;20431;-75
2022/07/28 08:16:14;;;;;;;4.28;1.27;;;;;;;;;;5052283;28;20464;-75
2022/07/28 08:18:39;;;;;;;3.45;1.30;;;;;;;;;;5053545;28;20100;-74
2022/07/28 08:21:05;;;;;;;1.20;1.10;;;;;;;;;;5050889;28;20063;-73
2022/07/28 08:23:30;;;;;;;2.25;1.10;;;;;;;;;;5049957;28;20027;-78
2022/07/28 08:25:59;;;;;;;1.88;1.10;;;;;;;;;;5052090;28;20036;-71
2022/07/28 08:28:24;;;;;;;2.42;1.30;;;;;;;;;;5052376;28;20021;-73
2022/07/28 08:30:50;;;;;;;2.50;1.40;;;;;;;;;;5052321;28;20025;-73
2022/07/28 08:33:20;;;;;;;1.42;1.05;;;;;;;;;;5052429;28;20376;-73
2022/07/28 08:35:46;;;;;;;2.83;1.10;;;;;;;;;;5052381;28;20029;-73
2022/07/28 08:38:12;;;;;;;2.67;1.13;;;;;;;;;;5052469;28;20479;-73
2022/07/28 08:40:38;;;;;;;1.65;1.10;;;;;;;;;;5051215;28;20029;-73
2022/07/28 08:43:15;;;;;;;3.00;1.15;;;;;;;;;;5052353;28;20104;-73
2022/07/28 08:45:43;;;;;;;3.88;1.35;;;;;;;;;;5052469;28;20022;-75
2022/07/28 08:48:09;;;;;;;1.73;1.02;;;;;;;;;;5051140;28;20042;-73
2022/07/28 08:50:36;;;;;;;2.25;1.00;;;;;;;;;;5052374;28;20481;-73
2022/07/28 08:53:01;;;;;;;5.20;1.30;;;;;;;;;;5052223;28;20055;-72
2022/07/28 08:55:27;;;;;;;3.22;1.20;;;;;;;;;;5052400;28;20032;-72
2022/07/28 08:57:55;;;;;;;1.58;1.20;;;;;;;;;;5052282;28;20025;-75
2022/07/28 09:00:21;;;;;;;1.90;1.30;;;;;;;;;;5051152;28;20108;-73
2022/07/28 09:02:46;;;;;;;3.30;1.10;;;;;;;;;;5052312;28;20024;-72
2022/07/28 09:05:12;;;;;;;2.28;1.10;;;;;;;;;;5053200;28;20058;-72
2022/07/28 09:07:38;;;;;;;2.88;1.23;;;;;;;;;;5052039;28;20032;-74
2022/07/28 09:10:04;;;;;;;1.73;1.40;;;;;;;;;;5052085;28;20032;-73
2022/07/28 09:12:32;;;;;;;2.20;1.08;;;;;;;;;;5053477;28;20021;-73
2022/07/28 09:14:57;;;;;;;2.33;1.10;;;;;;;;;;5053472;28;20029;-72
2022/07/28 09:17:23;;;;;;;1.77;1.30;;;;;;;;;;5053170;28;20028;-73
2022/07/28 09:19:48;;;;;;;1.42;1.02;;;;;;;;;;5053121;28;20052;-73
2022/07/28 09:22:14;;;;;;;5.95;1.33;;;;;;;;;;5052981;28;20380;-72
2022/07/28 09:24:40;;;;;;;1.45;1.20;;;;;;;;;;5055141;28;20021;-72
2022/07/28 09:27:09;;;;;;;2.13;0.90;;;;;;;;;;5055746;28;20060;-72
2022/07/28 09:29:36;;;;;;;1.90;1.10;;;;;;;;;;5057809;28;20021;-73
2022/07/28 09:32:02;;;;;;;1.23;1.00;;;;;;;;;;5056946;28;20020;-72
2022/07/28 09:34:37;;;;;;;1.88;1.17;;;;;;;;;;5057185;28;20472;-72
2022/07/28 09:37:02;;;;;;;1.80;1.00;;;;;;;;;;5057033;28;20087;-72
2022/07/28 09:39:33;;;;;;;3.00;1.27;;;;;;;;;;5056765;28;20024;-72
2022/07/28 09:41:58;;;;;;;3.10;1.40;;;;;;;;;;5056773;28;20048;-72
2022/07/28 09:44:25;;;;;;;1.27;1.00;;;;;;;;;;5055479;28;20025;-72
2022/07/28 09:46:51;;;;;;;1.80;1.38;;;;;;;;;;5055726;28;20139;-72
2022/07/28 09:49:16;;;;;;;1.77;1.23;;;;;;;;;;5056394;28;20456;-72
2022/07/28 09:51:58;;;;;;;2.10;1.33;;;;;;;;;;5056520;28;20041;-72
2022/07/28 09:54:24;;;;;;;2.45;1.30;;;;;;;;;;5055267;28;20026;-72
2022/07/28 09:56:50;;;;;;;1.80;1.10;;;;;;;;;;5056029;28;20070;-72
2022/07/28 09:59:17;;;;;;;1.25;1.08;;;;;;;;;;5056245;28;20064;-72
2022/07/28 10:02:13;;;;;;;1.63;1.23;;;;;;;;;;5056701;28;20035;-72
2022/07/28 10:04:41;;;;;;;4.60;1.20;;;;;;;;;;5051332;28;20128;-72
2022/07/28 10:07:08;;;;;;;2.95;1.30;;;;;;;;;;5055703;28;20025;-72
2022/07/28 10:09:34;;;;;;;1.55;1.20;;;;;;;;;;5054864;28;20170;-72
2022/07/28 10:12:16;;;;;;;1.73;1.20;;;;;;;;;;5056450;28;20511;-72
2022/07/28 10:14:41;;;;;;;2.55;1.50;;;;;;;;;;5056427;28;20036;-72
2022/07/28 10:17:08;;;;;;;1.60;1.30;;;;;;;;;;5056091;28;20021;-72
2022/07/28 10:19:34;;;;;;;1.83;1.40;;;;;;;;;;5056311;28;20052;-72
2022/07/28 10:22:00;;;;;;;1.73;1.30;;;;;;;;;;5054894;28;20452;-72
2022/07/28 10:24:26;;;;;;;1.98;1.10;;;;;;;;;;5056227;28;20032;-72
2022/07/28 10:26:55;;;;;;;1.70;1.10;;;;;;;;;;5056186;28;20017;-72
2022/07/28 10:29:20;;;;;;;1.98;1.10;;;;;;;;;;5055821;28;20423;-72
2022/07/28 10:31:49;;;;;;;1.33;1.10;;;;;;;;;;5055791;28;20028;-72
2022/07/28 10:34:22;;;;;;;2.63;1.20;;;;;;;;;;5056291;28;20457;-72
2022/07/28 10:36:48;;;;;;;2.25;1.00;;;;;;;;;;5055755;28;20032;-72
2022/07/28 10:39:17;;;;;;;2.70;1.08;;;;;;;;;;5055953;28;20015;-72
2022/07/28 10:41:42;;;;;;;1.15;1.13;;;;;;;;;;5054862;28;20112;-72
2022/07/28 10:44:12;;;;;;;1.63;1.15;;;;;;;;;;5054324;28;20104;-72
2022/07/28 10:46:39;;;;;;;2.22;1.38;;;;;;;;;;5056145;28;20037;-72
2022/07/28 10:49:04;;;;;;;3.65;1.35;;;;;;;;;;5055721;28;20055;-72
2022/07/28 10:51:30;;;;;;;2.35;1.08;;;;;;;;;;5053991;28;20075;-72
2022/07/28 10:54:02;;;;;;;5.07;1.40;;;;;;;;;;5055968;28;20040;-72
2022/07/28 10:56:28;;;;;;;1.73;1.20;;;;;;;;;;5055384;28;20488;-72
2022/07/28 10:59:04;;;;;;;2.28;1.40;;;;;;;;;;5054061;28;20021;-72
2022/07/28 11:01:36;;;;;;;1.77;1.42;;;;;;;;;;5053880;28;20028;-72
2022/07/28 11:04:02;;;;;;;2.85;1.10;;;;;;;;;;5055470;28;20057;-72
2022/07/28 11:06:29;;;;;;;1.92;1.25;;;;;;;;;;5053896;28;20441;-72
2022/07/28 11:08:55;;;;;;;1.35;1.25;;;;;;;;;;5055127;28;20033;-72
2022/07/28 11:11:39;;;;;;;1.30;1.17;;;;;;;;;;5053770;28;20020;-72
2022/07/28 11:14:23;;;;;;;1.92;1.30;;;;;;;;;;5055302;28;20058;-72
2022/07/28 11:16:49;;;;;;;2.97;1.55;;;;;;;;;;5054518;28;20032;-72
2022/07/28 11:19:17;;;;;;;2.03;1.10;;;;;;;;;;5054907;28;20167;-72
2022/07/28 11:22:06;;;;;;;2.75;1.60;;;;;;;;;;5053560;28;20032;-72
2022/07/28 11:24:50;;;;;;;1.55;1.13;;;;;;;;;;5051715;28;20044;-72
2022/07/28 11:27:16;;;;;;;2.20;1.33;;;;;;;;;;5053904;28;20071;-72
2022/07/28 11:29:45;;;;;;;1.88;1.27;;;;;;;;;;5053496;28;20482;-72
2022/07/28 11:32:10;;;;;;;1.37;1.27;;;;;;;;;;5054988;28;20036;-72
2022/07/28 11:34:54;;;;;;;1.65;1.20;;;;;;;;;;5053387;28;20024;-72
2022/07/28 11:37:20;;;;;;;2.70;1.58;;;;;;;;;;5054721;28;20118;-72
2022/07/28 11:39:45;;;;;;;3.80;1.60;;;;;;;;;;5054813;28;20029;-72
2022/07/28 11:42:27;;;;;;;1.67;1.17;;;;;;;;;;5053136;28;20040;-72
2022/07/28 11:44:53;;;;;;;2.08;1.00;;;;;;;;;;5053801;28;20029;-72
2022/07/28 11:47:20;;;;;;;1.45;1.30;;;;;;;;;;5053525;28;20098;-72
2022/07/28 11:50:06;;;;;;;2.28;1.30;;;;;;;;;;5054285;28;20021;-72
2022/07/28 11:52:32;;;;;;;2.08;1.23;;;;;;;;;;5050211;28;20446;-72
2022/07/28 11:54:57;;;;;;;1.23;1.13;;;;;;;;;;5054527;28;20028;-72
2022/07/28 11:57:24;;;;;;;2.15;1.48;;;;;;;;;;5054454;28;20112;-72
2022/07/28 11:59:52;;;;;;;2.33;1.52;;;;;;;;;;5054164;28;20016;-72
2022/07/28 12:02:19;;;;;;;1.88;1.60;;;;;;;;;;5052849;28;20033;-72
2022/07/28 12:04:44;;;;;;;3.65;1.15;;;;;;;;;;5054607;28;20103;-72
2022/07/28 12:07:10;;;;;;;1.95;1.27;;;;;;;;;;5053977;28;20052;-72
2022/07/28 12:09:37;;;;;;;4.00;1.23;;;;;;;;;;5052845;28;20392;-72
2022/07/28 12:12:02;;;;;;;1.42;1.23;;;;;;;;;;5053951;28;20082;-72
2022/07/28 12:14:28;;;;;;;1.95;1.30;;;;;;;;;;5053920;28;20020;-72
2022/07/28 12:16:54;;;;;;;1.30;1.20;;;;;;;;;;5052603;28;20032;-72
2022/07/28 12:19:20;;;;;;;1.85;1.10;;;;;;;;;;5054107;28;20105;-72
2022/07/28 12:21:48;;;;;;;1.33;1.13;;;;;;;;;;5053993;28;20028;-72
2022/07/28 12:24:14;;;;;;;1.83;1.30;;;;;;;;;;5054060;28;20078;-72
2022/07/28 12:26:40;;;;;;;1.63;1.20;;;;;;;;;;5052445;28;20551;-72
2022/07/28 12:29:06;;;;;;;2.45;1.35;;;;;;;;;;5052442;28;20016;-72
2022/07/28 12:31:32;;;;;;;5.63;1.35;;;;;;;;;;5053969;28;20052;-72
2022/07/28 12:33:58;;;;;;;2.95;1.40;;;;;;;;;;5054182;28;20016;-72
2022/07/28 12:36:23;;;;;;;1.88;1.30;;;;;;;;;;5053548;28;20502;-72
2022/07/28 12:38:52;;;;;;;1.85;1.10;;;;;;;;;;5053551;28;20095;-72
2022/07/28 12:41:18;;;;;;;2.78;1.10;;;;;;;;;;5053827;28;20461;-72
2022/07/28 12:43:50;;;;;;;1.50;1.40;;;;;;;;;;5053540;28;20127;-72
2022/07/28 12:46:22;;;;;;;1.42;1.30;;;;;;;;;;5052221;28;20490;-72
2022/07/28 12:48:48;;;;;;;3.10;1.30;;;;;;;;;;5053773;28;20028;-72
2022/07/28 12:51:33;;;;;;;1.20;1.10;;;;;;;;;;5053269;28;20021;-72
2022/07/28 12:53:59;;;;;;;2.00;1.52;;;;;;;;;;5053658;28;20040;-72
2022/07/28 12:56:25;;;;;;;1.40;1.30;;;;;;;;;;5053695;28;20032;-72
2022/07/28 12:59:07;;;;;;;2.42;1.10;;;;;;;;;;5055955;28;20037;-72
2022/07/28 13:01:44;;;;;;;6.13;1.30;;;;;;;;;;5057672;28;20040;-72
2022/07/28 13:04:10;;;;;;;2.22;1.40;;;;;;;;;;5057716;28;20068;-72
2022/07/28 13:06:35;;;;;;;2.00;1.10;;;;;;;;;;5039577;28;20021;-72
2022/07/28 13:09:01;;;;;;;2.03;1.15;;;;;;;;;;5057928;28;20028;-72
2022/07/28 13:11:30;;;;;;;1.75;1.45;;;;;;;;;;5056080;28;20025;-72
2022/07/28 13:13:55;;;;;;;2.75;1.00;;;;;;;;;;5056070;28;20029;-72
2022/07/28 13:16:22;;;;;;;3.80;1.00;;;;;;;;;;5055959;28;20023;-72
2022/07/28 13:18:50;;;;;;;3.85;1.40;;;;;;;;;;5057700;28;20446;-72
2022/07/28 13:21:15;;;;;;;1.50;1.40;;;;;;;;;;5055912;28;20021;-72
2022/07/28 13:23:41;;;;;;;1.85;1.30;;;;;;;;;;5057016;28;20036;-72
2022/07/28 13:26:06;;;;;;;2.95;1.23;;;;;;;;;;5056163;28;20021;-72
2022/07/28 13:28:32;;;;;;;2.33;1.35;;;;;;;;;;5039144;28;20025;-72
2022/07/28 13:30:57;;;;;;;4.13;1.35;;;;;;;;;;5057006;28;20115;-72
2022/07/28 13:33:25;;;;;;;1.27;1.17;;;;;;;;;;5056942;28;20391;-72
2022/07/28 13:35:50;;;;;;;1.20;1.10;;;;;;;;;;5057084;28;20025;-72
2022/07/28 13:38:16;;;;;;;0.60;0.60;;;;;;;;;;5056825;28;20113;-72
2022/07/28 13:40:42;;;;;;;1.30;1.20;;;;;;;;;;5057073;28;20052;-72
2022/07/28 13:43:07;;;;;;;5.45;1.50;;;;;;;;;;5038849;28;20087;-72
2022/07/28 13:45:34;;;;;;;1.20;1.10;;;;;;;;;;5056643;28;20433;-72
2022/07/28 13:48:00;;;;;;;2.72;1.30;;;;;;;;;;5056946;28;20032;-72
2022/07/28 13:50:25;;;;;;;1.73;1.17;;;;;;;;;;5056794;28;20063;-72
2022/07/28 13:52:51;;;;;;;2.45;1.42;;;;;;;;;;5056461;28;20061;-72
2022/07/28 13:55:17;;;;;;;2.08;1.17;;;;;;;;;;5055258;28;20119;-72
2022/07/28 13:57:43;;;;;;;1.88;1.40;;;;;;;;;;5056756;28;20021;-72
2022/07/28 14:00:09;;;;;;;3.10;1.20;;;;;;;;;;5057001;28;20040;-72
2022/07/28 14:02:34;;;;;;;1.98;1.30;;;;;;;;;;5056277;28;20111;-72
2022/07/28 14:05:00;;;;;;;2.67;1.10;;;;;;;;;;5055920;28;20028;-72
2022/07/28 14:07:25;;;;;;;1.48;1.15;;;;;;;;;;5055989;28;20013;-73
2022/07/28 14:09:51;;;;;;;2.15;1.27;;;;;;;;;;5054153;28;20029;-80
2022/07/28 14:12:16;;;;;;;1.73;1.17;;;;;;;;;;5056552;28;20025;-80
2022/07/28 14:14:42;;;;;;;1.02;1.02;;;;;;;;;;5056341;28;20083;-80
2022/07/28 14:17:07;;;;;;;1.55;1.33;;;;;;;;;;5056299;28;20024;-80
2022/07/28 14:19:33;;;;;;;1.33;1.13;;;;;;;;;;5055003;28;20047;-80
2022/07/28 14:21:58;;;;;;;1.70;1.48;;;;;;;;;;5054983;28;20116;-80
2022/07/28 14:24:26;;;;;;;1.13;1.08;;;;;;;;;;5054958;28;20025;-80
2022/07/28 14:26:52;;;;;;;2.72;0.95;;;;;;;;;;5053598;28;20376;-81
2022/07/28 14:29:17;;;;;;;1.33;1.20;;;;;;;;;;5054935;28;20032;-80
2022/07/28 14:31:42;;;;;;;3.35;1.30;;;;;;;;;;5055128;28;20103;-80
2022/07/28 14:34:08;;;;;;;3.50;1.67;;;;;;;;;;5055378;28;20549;-80
2022/07/28 14:36:34;;;;;;;3.33;1.58;;;;;;;;;;5054775;28;20119;-80
2022/07/28 14:38:59;;;;;;;2.15;1.40;;;;;;;;;;5054771;28;20033;-80
2022/07/28 14:41:26;;;;;;;3.67;1.70;;;;;;;;;;5054586;28;20380;-81
2022/07/28 14:43:51;;;;;;;3.53;2.65;;;;;;;;;;5053396;28;20388;-80